Time;durP1;ratioP1;P1;durP2;ratioP2;P2;SDS_P1;SDS_P2;PMS_P1;PMS_P2;Temp;Humidity;BMP_temperature;BMP_pressure;BME280_temperature;BME280_humidity;BME280_pressure;Samples;Min_cycle;Max_cycle;Signal;HPM_P1;HPM_P2
2024/04/03 00:00:51;;;;;;;1999.90;999.90;;;11.00;90.90;;;;;;5023703;28;20843;-75
2024/04/03 00:03:17;;;;;;;1999.90;999.90;;;11.00;91.00;;;;;;5021913;28;20036;-75
2024/04/03 00:05:42;;;;;;;1999.90;999.90;;;10.90;91.00;;;;;;5021742;28;20032;-75
2024/04/03 00:08:08;;;;;;;1999.90;999.90;;;11.00;91.10;;;;;;5019946;28;20152;-75
2024/04/03 00:10:34;;;;;;;1999.90;999.90;;;11.10;91.30;;;;;;5023126;28;20079;-75
2024/04/03 00:13:00;;;;;;;1999.90;999.90;;;11.20;91.00;;;;;;5022046;28;20739;-75
2024/04/03 00:15:26;;;;;;;1999.90;999.90;;;11.10;91.70;;;;;;5022152;28;20040;-75
2024/04/03 00:17:52;;;;;;;1999.90;999.90;;;11.10;91.70;;;;;;5020263;28;20035;-77
2024/04/03 00:20:24;;;;;;;1999.90;999.90;;;11.00;91.90;;;;;;5021943;28;20034;-76
2024/04/03 00:22:50;;;;;;;1999.90;999.90;;;10.80;91.70;;;;;;5020739;28;20756;-76
2024/04/03 00:25:17;;;;;;;1999.90;999.90;;;10.90;91.80;;;;;;5022643;28;20056;-76
2024/04/03 00:27:43;;;;;;;;;;;10.70;92.20;;;;;;5023032;28;20413;-75
2024/04/03 00:30:09;;;;;;;1999.90;999.90;;;10.70;92.10;;;;;;5022071;28;19920;-75
2024/04/03 00:32:35;;;;;;;1999.90;999.90;;;10.60;91.80;;;;;;5022929;28;20154;-75
2024/04/03 00:35:01;;;;;;;1999.90;999.90;;;10.60;92.20;;;;;;5022579;28;20836;-76
2024/04/03 00:37:29;;;;;;;1999.90;999.90;;;10.60;92.20;;;;;;5020077;28;20116;-76
2024/04/03 00:39:56;;;;;;;1999.90;999.90;;;10.60;92.30;;;;;;5022922;28;20542;-76
2024/04/03 00:42:22;;;;;;;1999.90;999.90;;;10.60;92.00;;;;;;5022371;28;20849;-76
2024/04/03 00:44:49;;;;;;;1999.90;999.90;;;10.80;91.90;;;;;;5026516;28;20128;-75
2024/04/03 00:47:16;;;;;;;1999.90;999.90;;;10.70;91.10;;;;;;5020923;28;20037;-75
2024/04/03 00:49:43;;;;;;;1999.90;999.90;;;10.60;91.50;;;;;;5025716;28;20497;-75
2024/04/03 00:52:10;;;;;;;1999.90;999.90;;;10.70;91.40;;;;;;5020816;28;20045;-76
2024/04/03 00:54:36;;;;;;;1999.90;999.90;;;10.80;91.10;;;;;;5020637;28;20611;-76
2024/04/03 00:57:02;;;;;;;1999.90;999.90;;;10.80;90.80;;;;;;5022641;28;20046;-76
2024/04/03 00:59:29;;;;;;;1999.90;999.90;;;10.90;91.00;;;;;;5021178;28;20042;-75
2024/04/03 01:01:54;;;;;;;1999.90;999.90;;;10.70;91.10;;;;;;5021496;28;20029;-75
2024/04/03 01:04:20;;;;;;;1999.90;999.90;;;10.70;91.50;;;;;;5020924;28;20095;-75
2024/04/03 01:06:46;;;;;;;1999.90;999.90;;;10.80;91.50;;;;;;5020834;28;20130;-75
2024/04/03 01:09:11;;;;;;;1999.90;999.90;;;10.80;91.60;;;;;;5021795;28;20528;-75
2024/04/03 01:11:37;;;;;;;1999.90;999.90;;;10.60;91.60;;;;;;5023663;28;20029;-76
2024/04/03 01:14:03;;;;;;;1999.90;999.90;;;10.70;91.80;;;;;;5019360;28;20029;-75
2024/04/03 01:16:28;;;;;;;1999.90;999.90;;;10.80;91.00;;;;;;5021485;28;20144;-75
2024/04/03 01:18:54;;;;;;;1999.90;999.90;;;11.00;90.70;;;;;;5024586;28;20086;-75
2024/04/03 01:21:20;;;;;;;1999.90;999.90;;;10.90;90.60;;;;;;5022176;28;20083;-75
2024/04/03 01:23:53;;;;;;;1999.90;999.90;;;10.60;91.30;;;;;;5020608;28;20071;-75
2024/04/03 01:26:19;;;;;;;1999.90;999.90;;;10.60;91.70;;;;;;5020657;28;20033;-75
2024/04/03 01:28:45;;;;;;;1999.90;999.90;;;10.60;92.00;;;;;;5020064;28;20821;-75
2024/04/03 01:31:10;;;;;;;1999.90;999.90;;;10.60;92.20;;;;;;5020915;28;20100;-76
2024/04/03 01:33:36;;;;;;;1999.90;999.90;;;10.70;92.30;;;;;;5020605;28;20040;-76
2024/04/03 01:36:02;;;;;;;1999.90;999.90;;;10.60;92.50;;;;;;5022517;28;20040;-77
2024/04/03 01:38:27;;;;;;;1999.90;999.90;;;10.60;92.30;;;;;;5023027;28;20108;-75
2024/04/03 01:40:53;;;;;;;1999.90;999.90;;;10.60;92.80;;;;;;5021352;28;20153;-77
2024/04/03 01:43:19;;;;;;;1999.90;999.90;;;10.70;92.60;;;;;;5021084;28;20118;-76
2024/04/03 01:45:45;;;;;;;1999.90;999.90;;;10.70;92.00;;;;;;5021137;28;21297;-75
2024/04/03 01:48:10;;;;;;;1999.90;999.90;;;10.60;92.60;;;;;;5019380;28;20100;-75
2024/04/03 01:50:38;;;;;;;1999.90;999.90;;;10.70;92.00;;;;;;5024641;28;20032;-75
2024/04/03 01:53:04;;;;;;;1999.90;999.90;;;10.60;92.60;;;;;;5020263;28;20135;-76
2024/04/03 01:55:30;;;;;;;1999.90;999.90;;;10.70;92.70;;;;;;5020618;28;20050;-75
2024/04/03 01:57:56;;;;;;;1999.90;999.90;;;10.70;92.20;;;;;;5022305;28;20029;-75
2024/04/03 02:00:22;;;;;;;1999.90;999.90;;;10.80;92.00;;;;;;5022206;28;20057;-75
2024/04/03 02:02:48;;;;;;;1999.90;999.90;;;10.70;92.10;;;;;;5020866;28;20736;-76
2024/04/03 02:05:13;;;;;;;1999.90;999.90;;;10.70;92.40;;;;;;5020302;28;20057;-76
2024/04/03 02:07:39;;;;;;;1999.90;999.90;;;10.80;92.00;;;;;;5018064;28;20026;-76
2024/04/03 02:10:05;;;;;;;1999.90;999.90;;;10.70;92.20;;;;;;5022720;28;20036;-75
2024/04/03 02:12:31;;;;;;;1999.90;999.90;;;10.80;91.60;;;;;;5021209;28;20099;-75
2024/04/03 02:14:56;;;;;;;1999.90;999.90;;;10.80;91.70;;;;;;5023838;28;20259;-76
2024/04/03 02:17:22;;;;;;;1999.90;999.90;;;10.90;91.60;;;;;;5020568;28;20025;-76
2024/04/03 02:19:49;;;;;;;1999.90;999.90;;;10.80;91.40;;;;;;5017080;28;20043;-75
2024/04/03 02:22:15;;;;;;;1999.90;999.90;;;10.70;91.70;;;;;;5020826;28;20116;-76
2024/04/03 02:24:40;;;;;;;1999.90;999.90;;;10.60;91.90;;;;;;5020809;28;20034;-75
2024/04/03 02:27:06;;;;;;;1999.90;999.90;;;10.70;91.90;;;;;;5019759;28;20773;-76
2024/04/03 02:29:32;;;;;;;1999.90;999.90;;;10.50;92.40;;;;;;5019320;28;20095;-75
2024/04/03 02:31:58;;;;;;;1999.90;999.90;;;10.50;92.40;;;;;;5020550;28;20075;-77
2024/04/03 02:34:24;;;;;;;1999.90;999.90;;;10.60;92.30;;;;;;5023820;28;20038;-77
2024/04/03 02:36:49;;;;;;;1999.90;999.90;;;10.60;92.00;;;;;;5024268;28;20029;-76
2024/04/03 02:39:15;;;;;;;1999.90;999.90;;;10.60;92.60;;;;;;5023936;28;20041;-76
2024/04/03 02:41:41;;;;;;;1999.90;999.90;;;10.60;92.30;;;;;;5023230;28;20030;-77
2024/04/03 02:44:07;;;;;;;1999.90;999.90;;;10.50;92.80;;;;;;5023784;28;20036;-77
2024/04/03 02:46:33;;;;;;;1999.90;999.90;;;10.60;92.70;;;;;;5023713;28;20433;-76
2024/04/03 02:48:58;;;;;;;1999.90;999.90;;;10.60;92.60;;;;;;5023911;28;20138;-76
2024/04/03 02:51:24;;;;;;;1999.90;999.90;;;10.70;92.40;;;;;;5025063;28;20432;-76
2024/04/03 02:53:50;;;;;;;1999.90;999.90;;;10.70;92.60;;;;;;5026412;28;20455;-76
2024/04/03 02:56:16;;;;;;;1999.90;999.90;;;10.70;92.80;;;;;;5023275;28;20128;-77
2024/04/03 02:58:41;;;;;;;1999.90;999.90;;;10.60;92.70;;;;;;5029920;28;20604;-76
2024/04/03 03:01:09;;;;;;;1999.90;999.90;;;10.60;92.60;;;;;;5023262;28;20040;-77
2024/04/03 03:03:36;;;;;;;1999.90;999.90;;;10.60;93.00;;;;;;5023992;28;20025;-76
2024/04/03 03:06:02;;;;;;;;;;;10.50;93.60;;;;;;5020899;28;20064;-77
2024/04/03 03:08:30;;;;;;;1999.90;999.90;;;10.50;93.50;;;;;;5023741;28;19986;-76
2024/04/03 03:10:57;;;;;;;1999.90;999.90;;;10.60;93.30;;;;;;5024617;28;20132;-77
2024/04/03 03:13:26;;;;;;;1999.90;999.90;;;10.50;93.50;;;;;;5024127;28;20060;-77
2024/04/03 03:15:58;;;;;;;1999.90;999.90;;;10.50;93.70;;;;;;5023007;28;20034;-78
2024/04/03 03:18:28;;;;;;;1999.90;999.90;;;10.50;93.80;;;;;;5023697;28;20063;-77
2024/04/03 03:20:55;;;;;;;1999.90;999.90;;;10.50;94.00;;;;;;5023584;28;20040;-75
2024/04/03 03:23:21;;;;;;;1999.90;999.90;;;10.50;94.50;;;;;;5021608;28;20030;-76
2024/04/03 03:25:47;;;;;;;1999.90;999.90;;;10.40;94.80;;;;;;5026634;28;20043;-76
2024/04/03 03:28:14;;;;;;;1999.90;999.90;;;10.40;95.20;;;;;;5023241;28;20041;-76
2024/04/03 03:30:45;;;;;;;1999.90;999.90;;;10.40;95.60;;;;;;5023225;28;20029;-76
2024/04/03 03:33:10;;;;;;;1999.90;999.90;;;10.40;96.30;;;;;;5021856;28;20092;-76
2024/04/03 03:35:36;;;;;;;1999.90;999.90;;;10.30;96.60;;;;;;5022913;28;20029;-76
2024/04/03 03:38:02;;;;;;;1999.90;999.90;;;10.20;97.10;;;;;;5023038;28;20033;-76
2024/04/03 03:40:27;;;;;;;1999.90;999.90;;;10.20;97.30;;;;;;5024621;28;20493;-76
2024/04/03 03:42:53;;;;;;;1999.90;999.90;;;10.10;97.70;;;;;;5023545;28;20040;-76
2024/04/03 03:45:20;;;;;;;1999.90;999.90;;;10.20;97.90;;;;;;5022292;28;20113;-77
2024/04/03 03:47:47;;;;;;;1999.90;999.90;;;10.20;98.00;;;;;;5022392;28;20029;-77
2024/04/03 03:52:57;;;;;;;1999.90;999.90;;;10.30;97.80;;;;;;5023439;28;20056;-77
2024/04/03 03:55:27;;;;;;;1999.90;999.90;;;10.30;97.80;;;;;;5022485;28;20079;-77
2024/04/03 03:57:53;;;;;;;1999.90;999.90;;;10.30;97.90;;;;;;5022170;28;20576;-77
2024/04/03 04:00:19;;;;;;;1999.90;999.90;;;10.30;97.80;;;;;;5028400;28;20033;-77
2024/04/03 04:02:45;;;;;;;1999.90;999.90;;;10.40;97.70;;;;;;5022933;28;20556;-77
2024/04/03 04:05:11;;;;;;;1999.90;999.90;;;10.40;97.60;;;;;;5022800;28;20084;-77
2024/04/03 04:07:36;;;;;;;1999.90;999.90;;;10.40;98.00;;;;;;5022399;28;20108;-78
2024/04/03 04:10:03;;;;;;;1999.90;999.90;;;10.40;97.80;;;;;;5021873;28;20098;-78
2024/04/03 04:12:29;;;;;;;1999.90;999.90;;;10.40;97.90;;;;;;5020134;28;20025;-77
2024/04/03 04:14:54;;;;;;;1999.90;999.90;;;10.50;97.70;;;;;;5024709;28;20029;-77
2024/04/03 04:17:23;;;;;;;1999.90;999.90;;;10.40;97.50;;;;;;5022901;28;20550;-77
2024/04/03 04:19:50;;;;;;;1999.90;999.90;;;10.40;97.40;;;;;;5017553;28;20072;-77
2024/04/03 04:22:16;;;;;;;1999.90;999.90;;;10.50;97.40;;;;;;5015617;28;20028;-77
2024/04/03 04:24:45;;;;;;;1999.90;999.90;;;10.40;97.40;;;;;;5022795;28;20083;-76
2024/04/03 04:27:12;;;;;;;1999.90;999.90;;;10.40;97.30;;;;;;5026063;28;20556;-76
2024/04/03 04:29:41;;;;;;;1999.90;999.90;;;10.50;97.50;;;;;;5022203;28;20030;-76
2024/04/03 04:32:08;;;;;;;1999.90;999.90;;;10.40;97.80;;;;;;5022208;28;20032;-76
2024/04/03 04:34:34;;;;;;;1999.90;999.90;;;10.50;97.80;;;;;;5020883;28;20132;-76
2024/04/03 04:37:00;;;;;;;1999.90;999.90;;;10.60;97.60;;;;;;5021853;28;20056;-76
2024/04/03 04:39:26;;;;;;;1999.90;999.90;;;10.60;97.70;;;;;;5024091;28;20116;-74
2024/04/03 04:41:52;;;;;;;1999.90;999.90;;;10.50;97.80;;;;;;5022455;28;20030;-75
2024/04/03 04:44:19;;;;;;;1999.90;999.90;;;10.60;98.00;;;;;;5020452;28;20029;-75
2024/04/03 04:46:48;;;;;;;;;;;10.60;98.00;;;;;;5026551;28;20064;-75
2024/04/03 04:49:15;;;;;;;1999.90;999.90;;;10.60;98.10;;;;;;5021697;28;19970;-75
2024/04/03 04:51:40;;;;;;;1999.90;999.90;;;10.60;98.10;;;;;;5022197;28;20025;-75
2024/04/03 04:54:06;;;;;;;1999.90;999.90;;;10.60;98.20;;;;;;5021368;28;20037;-74
2024/04/03 04:56:32;;;;;;;1999.90;999.90;;;10.70;98.30;;;;;;5026681;28;20045;-74
2024/04/03 04:58:57;;;;;;;1999.90;999.90;;;10.70;98.50;;;;;;5025152;28;20589;-75
2024/04/03 05:01:23;;;;;;;1999.90;999.90;;;10.70;98.80;;;;;;5022224;28;20439;-75
2024/04/03 05:03:49;;;;;;;1999.90;999.90;;;10.70;99.10;;;;;;5021779;28;20591;-75
2024/04/03 05:06:16;;;;;;;1999.90;999.90;;;10.70;99.20;;;;;;5019757;28;20044;-74
2024/04/03 05:08:42;;;;;;;1999.90;999.90;;;10.70;99.40;;;;;;5022208;28;20026;-75
2024/04/03 05:11:08;;;;;;;1999.90;999.90;;;10.60;99.70;;;;;;5021532;28;20030;-74
2024/04/03 05:13:34;;;;;;;1999.90;999.90;;;10.60;99.90;;;;;;5022480;28;20045;-74
2024/04/03 05:16:11;;;;;;;1999.90;999.90;;;10.70;99.90;;;;;;5020995;28;20034;-74
2024/04/03 05:18:38;;;;;;;1999.90;999.90;;;10.70;99.90;;;;;;5021166;28;20042;-74
2024/04/03 05:21:04;;;;;;;1999.90;999.90;;;10.70;99.90;;;;;;5021278;28;20037;-74
2024/04/03 05:23:31;;;;;;;1999.90;999.90;;;10.60;99.90;;;;;;5022182;28;20053;-74
2024/04/03 05:26:06;;;;;;;1999.90;999.90;;;10.60;99.90;;;;;;5020896;28;20021;-74
2024/04/03 05:28:35;;;;;;;1999.90;999.90;;;10.60;99.90;;;;;;5024303;28;20249;-74
2024/04/03 05:31:18;;;;;;;1999.90;999.90;;;10.70;99.90;;;;;;5012586;28;20032;-74
2024/04/03 05:33:44;;;;;;;1999.90;999.90;;;10.80;99.90;;;;;;5021927;28;20029;-74
2024/04/03 05:36:10;;;;;;;1999.90;999.90;;;10.80;99.90;;;;;;5018919;28;20028;-74
2024/04/03 05:38:38;;;;;;;1999.90;999.90;;;10.80;99.90;;;;;;5021289;28;20045;-74
2024/04/03 05:41:03;;;;;;;1999.90;999.90;;;10.80;99.90;;;;;;5021556;28;20075;-74
2024/04/03 05:43:30;;;;;;;1999.90;999.90;;;10.80;99.90;;;;;;5020584;28;20037;-74
2024/04/03 05:45:56;;;;;;;1999.90;999.90;;;10.80;99.90;;;;;;5020192;28;20030;-74
2024/04/03 05:48:23;;;;;;;1999.90;999.90;;;10.80;99.90;;;;;;5018298;28;20042;-74
2024/04/03 05:51:05;;;;;;;1999.90;999.90;;;10.90;99.90;;;;;;5020958;28;20112;-74
2024/04/03 05:53:31;;;;;;;1999.90;999.90;;;10.90;99.90;;;;;;5021203;28;20148;-75
2024/04/03 05:55:58;;;;;;;1999.90;999.90;;;10.80;99.90;;;;;;5020665;28;20041;-70
2024/04/03 05:58:25;;;;;;;1999.90;999.90;;;10.90;99.90;;;;;;5021055;28;20049;-74
2024/04/03 06:00:55;;;;;;;1999.90;999.90;;;10.90;99.90;;;;;;5020669;28;20452;-74
2024/04/03 06:03:21;;;;;;;1999.90;999.90;;;11.00;99.90;;;;;;5014290;28;20029;-73
2024/04/03 06:05:58;;;;;;;1999.90;999.90;;;11.00;99.90;;;;;;5019240;28;20033;-75
2024/04/03 06:08:24;;;;;;;1999.90;999.90;;;11.10;99.90;;;;;;5012832;28;20098;-75
2024/04/03 06:10:51;;;;;;;1999.90;999.90;;;11.10;99.90;;;;;;5023686;28;20017;-75
2024/04/03 06:13:17;;;;;;;1999.90;999.90;;;11.10;99.90;;;;;;5024038;28;20103;-75
2024/04/03 06:15:43;;;;;;;1999.90;999.90;;;11.20;99.90;;;;;;5024041;28;20447;-74
2024/04/03 06:18:10;;;;;;;1999.90;999.90;;;11.30;99.90;;;;;;5027761;28;20071;-75
2024/04/03 06:20:35;;;;;;;1999.90;999.90;;;11.40;99.90;;;;;;5023643;28;20032;-75
2024/04/03 06:23:02;;;;;;;1999.90;999.90;;;11.50;99.90;;;;;;5022446;28;20920;-75
2024/04/03 06:25:28;;;;;;;1999.90;999.90;;;11.50;99.90;;;;;;5023266;28;20515;-75
2024/04/03 06:27:53;;;;;;;1999.90;999.90;;;11.50;99.90;;;;;;5022519;28;20034;-77
2024/04/03 06:30:20;;;;;;;1999.90;999.90;;;11.60;99.90;;;;;;5015353;28;20463;-77
2024/04/03 06:32:46;;;;;;;1999.90;999.90;;;11.60;99.90;;;;;;5024288;28;20025;-77
2024/04/03 06:35:12;;;;;;;1999.90;999.90;;;11.70;99.90;;;;;;5016234;28;20111;-77
2024/04/03 06:37:39;;;;;;;1999.90;999.90;;;11.60;99.90;;;;;;5024764;28;20572;-77
2024/04/03 06:40:07;;;;;;;1999.90;999.90;;;11.50;99.90;;;;;;5023436;28;20088;-77
2024/04/03 06:42:33;;;;;;;1999.90;999.90;;;11.50;99.90;;;;;;5025125;28;20021;-77
2024/04/03 06:44:59;;;;;;;1999.90;999.90;;;11.60;99.90;;;;;;5025539;28;20095;-77
2024/04/03 06:47:26;;;;;;;1999.90;999.90;;;11.70;99.90;;;;;;5024997;28;20481;-77
2024/04/03 06:49:56;;;;;;;1999.90;999.90;;;11.70;99.90;;;;;;5024902;28;20119;-77
2024/04/03 06:52:24;;;;;;;1999.90;999.90;;;11.90;99.90;;;;;;5024981;28;20119;-77
2024/04/03 06:54:50;;;;;;;1999.90;999.90;;;11.90;99.90;;;;;;5024913;28;20783;-77
2024/04/03 06:57:15;;;;;;;1999.90;999.90;;;12.00;99.90;;;;;;5024320;28;20057;-77
2024/04/03 06:59:41;;;;;;;1999.90;999.90;;;12.10;99.90;;;;;;5020534;28;20578;-77
2024/04/03 07:02:07;;;;;;;1999.90;999.90;;;12.20;99.90;;;;;;5024280;28;20025;-76
2024/04/03 07:04:33;;;;;;;1999.90;999.90;;;12.20;99.90;;;;;;5024547;28;20026;-77
2024/04/03 07:07:01;;;;;;;1999.90;999.90;;;12.10;99.90;;;;;;5016411;28;20030;-77
2024/04/03 07:09:27;;;;;;;1999.90;999.90;;;12.00;99.90;;;;;;5024165;28;20029;-77
2024/04/03 07:11:53;;;;;;;1999.90;999.90;;;11.80;99.90;;;;;;5024512;28;20468;-77
2024/04/03 07:14:19;;;;;;;1999.90;999.90;;;11.90;99.90;;;;;;5025821;28;20056;-77
2024/04/03 07:16:48;;;;;;;1999.90;999.90;;;12.50;99.90;;;;;;5023986;28;20531;-77
2024/04/03 07:19:13;;;;;;;1999.90;999.90;;;13.30;98.30;;;;;;5022455;28;20036;-77
2024/04/03 07:21:41;;;;;;;1999.90;999.90;;;13.20;97.90;;;;;;5024460;28;20033;-77
2024/04/03 07:24:09;;;;;;;1999.90;999.90;;;12.80;98.30;;;;;;5024062;28;20021;-77
2024/04/03 07:26:34;;;;;;;1999.90;999.90;;;12.50;99.40;;;;;;5023109;28;20141;-77
2024/04/03 07:29:00;;;;;;;1999.90;999.90;;;12.30;99.90;;;;;;5026502;28;20037;-77
2024/04/03 07:31:26;;;;;;;1999.90;999.90;;;12.30;99.90;;;;;;5024179;28;20064;-77
2024/04/03 07:33:53;;;;;;;1999.90;999.90;;;12.20;99.90;;;;;;5023879;28;20556;-77
2024/04/03 07:36:21;;;;;;;1999.90;999.90;;;12.00;99.90;;;;;;5023662;28;20041;-77
2024/04/03 07:38:47;;;;;;;1999.90;999.90;;;11.90;99.90;;;;;;5024201;28;20696;-77
2024/04/03 07:41:31;;;;;;;1999.90;999.90;;;11.90;99.90;;;;;;5023086;28;20030;-77
2024/04/03 07:43:56;;;;;;;1999.90;999.90;;;11.90;99.90;;;;;;5024053;28;20034;-77
2024/04/03 07:46:23;;;;;;;1999.90;999.90;;;12.10;99.90;;;;;;5024328;28;20075;-77
2024/04/03 07:48:48;;;;;;;1999.90;999.90;;;12.40;99.90;;;;;;5024162;28;20044;-77
2024/04/03 07:51:14;;;;;;;1999.90;999.90;;;12.40;99.90;;;;;;5024510;28;20761;-77
2024/04/03 07:53:40;;;;;;;1999.90;999.90;;;12.30;99.90;;;;;;5023687;28;20057;-77
2024/04/03 07:56:06;;;;;;;1999.90;999.90;;;12.40;99.90;;;;;;5023843;28;20045;-77
2024/04/03 07:58:31;;;;;;;1999.90;999.90;;;12.30;99.90;;;;;;5023225;28;20123;-77
2024/04/03 08:01:01;;;;;;;1999.90;999.90;;;12.10;99.90;;;;;;5023294;28;20030;-77
2024/04/03 08:03:28;;;;;;;1999.90;999.90;;;12.10;99.90;;;;;;5030333;28;20034;-77
2024/04/03 08:05:54;;;;;;;1999.90;999.90;;;12.10;99.90;;;;;;5022446;28;20489;-77
2024/04/03 08:08:22;;;;;;;1999.90;999.90;;;12.10;99.90;;;;;;5017196;28;20088;-77
2024/04/03 08:10:47;;;;;;;1999.90;999.90;;;12.30;99.90;;;;;;5022997;28;20087;-77
2024/04/03 08:13:13;;;;;;;1999.90;999.90;;;12.50;99.90;;;;;;5022887;28;20510;-77
2024/04/03 08:15:38;;;;;;;1999.90;999.90;;;12.90;99.80;;;;;;5022607;28;20036;-77
2024/04/03 08:18:04;;;;;;;1999.90;999.90;;;13.00;99.40;;;;;;5023418;28;20029;-77
2024/04/03 08:20:30;;;;;;;1999.90;999.90;;;12.80;99.80;;;;;;5022762;28;20030;-77
2024/04/03 08:22:57;;;;;;;1999.90;999.90;;;13.40;98.90;;;;;;5024430;28;20029;-77
2024/04/03 08:25:24;;;;;;;1999.90;999.90;;;13.70;98.40;;;;;;5022731;28;20033;-77
2024/04/03 08:27:52;;;;;;;1999.90;999.90;;;13.70;98.00;;;;;;5021182;28;20025;-77
2024/04/03 08:30:19;;;;;;;1999.90;999.90;;;13.50;97.50;;;;;;5022477;28;20756;-77
2024/04/03 08:32:45;;;;;;;1999.90;999.90;;;13.20;98.30;;;;;;5020976;28;20556;-77
2024/04/03 08:35:11;;;;;;;1999.90;999.90;;;12.90;99.40;;;;;;5022735;28;20044;-77
2024/04/03 08:37:37;;;;;;;1999.90;999.90;;;13.10;98.90;;;;;;5022315;28;20029;-77
2024/04/03 08:40:03;;;;;;;1999.90;999.90;;;13.00;99.10;;;;;;5026177;28;20100;-77
2024/04/03 08:42:29;;;;;;;1999.90;999.90;;;13.00;99.20;;;;;;5022972;28;20060;-77
2024/04/03 08:44:57;;;;;;;1999.90;999.90;;;13.70;98.30;;;;;;5022422;28;20599;-77
2024/04/03 08:47:24;;;;;;;1999.90;999.90;;;14.50;96.40;;;;;;5022348;28;20041;-77
2024/04/03 08:49:50;;;;;;;1999.90;999.90;;;14.60;95.50;;;;;;5022015;28;20044;-77
2024/04/03 08:52:18;;;;;;;1999.90;999.90;;;14.60;95.00;;;;;;5022465;28;20017;-77
2024/04/03 08:54:44;;;;;;;1999.90;999.90;;;14.10;95.90;;;;;;5021442;28;20159;-77
2024/04/03 08:57:10;;;;;;;1999.90;999.90;;;13.80;96.90;;;;;;5020278;28;20064;-77
2024/04/03 08:59:39;;;;;;;1999.90;999.90;;;14.30;95.70;;;;;;5021684;28;20058;-77
2024/04/03 09:02:05;;;;;;;1999.90;999.90;;;14.90;95.30;;;;;;5022449;28;20171;-77
2024/04/03 09:04:32;;;;;;;1999.90;999.90;;;15.80;92.40;;;;;;5021932;28;20036;-77
2024/04/03 09:06:58;;;;;;;1999.90;999.90;;;16.40;91.30;;;;;;5012894;28;20079;-77
2024/04/03 09:09:26;;;;;;;1999.90;999.90;;;17.10;92.90;;;;;;5022341;28;20128;-77
2024/04/03 09:12:01;;;;;;;1999.90;999.90;;;17.80;85.50;;;;;;5021922;28;20030;-77
2024/04/03 09:14:30;;;;;;;1999.90;999.90;;;18.10;86.70;;;;;;5019716;28;20493;-77
2024/04/03 09:16:59;;;;;;;1999.90;999.90;;;17.60;85.60;;;;;;5023952;28;20033;-77
2024/04/03 09:19:26;;;;;;;1999.90;999.90;;;16.30;89.20;;;;;;5026589;28;20116;-77
2024/04/03 09:21:55;;;;;;;1999.90;999.90;;;17.80;84.40;;;;;;5022029;28;20052;-76
2024/04/03 09:24:20;;;;;;;1999.90;999.90;;;19.70;78.10;;;;;;5023785;28;20538;-76
2024/04/03 09:26:48;;;;;;;1999.90;999.90;;;18.20;79.10;;;;;;5024091;28;20108;-77
2024/04/03 09:29:15;;;;;;;1999.90;999.90;;;17.20;82.40;;;;;;5023698;28;20405;-77
2024/04/03 09:31:43;;;;;;;1999.90;999.90;;;15.80;88.60;;;;;;5021173;28;20049;-77
2024/04/03 09:34:09;;;;;;;1999.90;999.90;;;14.90;91.30;;;;;;5024665;28;20572;-77
2024/04/03 09:36:35;;;;;;;;;;;15.10;90.60;;;;;;5022014;28;20080;-77
2024/04/03 09:39:02;;;;;;;1999.90;999.90;;;15.30;89.30;;;;;;5021648;28;20392;-77
2024/04/03 09:41:31;;;;;;;1999.90;999.90;;;15.30;90.00;;;;;;5022465;28;20029;-77
2024/04/03 09:44:02;;;;;;;1999.90;999.90;;;15.70;88.20;;;;;;5025054;28;20025;-77
2024/04/03 09:46:38;;;;;;;1999.90;999.90;;;15.00;90.10;;;;;;5025907;28;20824;-77
2024/04/03 09:49:07;;;;;;;1999.90;999.90;;;14.90;91.40;;;;;;5021939;28;20029;-78
2024/04/03 09:51:34;;;;;;;1999.90;999.90;;;14.60;90.50;;;;;;5025588;28;20017;-77
2024/04/03 09:54:00;;;;;;;1999.90;999.90;;;14.70;91.90;;;;;;5025348;28;20057;-77
2024/04/03 09:56:27;;;;;;;1999.90;999.90;;;15.90;90.40;;;;;;5024886;28;20138;-77
2024/04/03 09:58:52;;;;;;;1999.90;999.90;;;16.30;89.10;;;;;;5025216;28;20042;-77
2024/04/03 10:01:19;;;;;;;1999.90;999.90;;;15.80;87.30;;;;;;5025222;28;20048;-77
2024/04/03 10:03:44;;;;;;;1999.90;999.90;;;16.20;87.80;;;;;;5027096;28;20033;-77
2024/04/03 10:06:14;;;;;;;1999.90;999.90;;;16.40;82.80;;;;;;5028047;28;20029;-77
2024/04/03 10:08:42;;;;;;;1999.90;999.90;;;16.00;85.00;;;;;;5020232;28;20377;-77
2024/04/03 10:11:13;;;;;;;1999.90;999.90;;;15.80;84.70;;;;;;5025332;28;20191;-77
2024/04/03 10:13:40;;;;;;;1999.90;999.90;;;15.60;86.10;;;;;;5023065;28;20560;-77
2024/04/03 10:16:13;;;;;;;1999.90;999.90;;;16.00;83.90;;;;;;5025014;28;20025;-77
2024/04/03 10:18:43;;;;;;;1999.90;999.90;;;16.30;83.10;;;;;;5028712;28;20033;-77
2024/04/03 10:21:10;;;;;;;1999.90;999.90;;;15.60;81.00;;;;;;5025348;28;20100;-77
2024/04/03 10:23:50;;;;;;;1999.90;999.90;;;15.00;85.50;;;;;;5024758;28;20029;-77
2024/04/03 10:26:18;;;;;;;1999.90;999.90;;;15.00;85.70;;;;;;5025559;28;20030;-77
2024/04/03 10:28:45;;;;;;;1999.90;999.90;;;14.50;85.40;;;;;;5027567;28;20108;-77
2024/04/03 10:31:18;;;;;;;1999.90;999.90;;;14.60;85.40;;;;;;5025158;28;20036;-77
2024/04/03 10:33:48;;;;;;;1999.90;999.90;;;14.10;94.00;;;;;;5025613;28;20140;-77
2024/04/03 10:36:15;;;;;;;1999.90;999.90;;;14.00;93.80;;;;;;5024861;28;20032;-77
2024/04/03 10:38:41;;;;;;;1999.90;999.90;;;14.40;91.90;;;;;;5024835;28;20026;-77
2024/04/03 10:41:07;;;;;;;1999.90;999.90;;;14.40;90.40;;;;;;5024553;28;20053;-77
2024/04/03 10:43:33;;;;;;;1999.90;999.90;;;14.40;91.70;;;;;;5024835;28;20130;-77
2024/04/03 10:45:59;;;;;;;1999.90;999.90;;;14.60;91.30;;;;;;5029675;28;20765;-77
2024/04/03 10:48:24;;;;;;;1999.90;999.90;;;14.80;91.80;;;;;;5024852;28;20025;-77
2024/04/03 10:50:50;;;;;;;1999.90;999.90;;;15.30;92.30;;;;;;5025292;28;20034;-77
2024/04/03 10:53:17;;;;;;;1999.90;999.90;;;15.20;91.40;;;;;;5024253;28;20025;-77
2024/04/03 10:55:43;;;;;;;;;;;15.10;91.40;;;;;;5023792;28;20148;-77
2024/04/03 10:58:09;;;;;;;1999.90;999.90;;;15.10;91.20;;;;;;5025733;28;19917;-77
2024/04/03 11:00:37;;;;;;;1999.90;999.90;;;15.40;89.20;;;;;;5023220;28;20140;-77
2024/04/03 11:03:04;;;;;;;1999.90;999.90;;;15.90;88.10;;;;;;5024909;28;20029;-77
2024/04/03 11:05:31;;;;;;;1999.90;999.90;;;16.40;86.90;;;;;;5023947;28;20049;-77
2024/04/03 11:07:57;;;;;;;1999.90;999.90;;;16.30;83.80;;;;;;5015382;28;20061;-77
2024/04/03 11:10:24;;;;;;;;;;;15.90;84.90;;;;;;5024462;28;20029;-77
2024/04/03 11:12:50;;;;;;;1999.90;999.90;;;15.70;87.40;;;;;;5025109;28;20004;-77
2024/04/03 11:15:24;;;;;;;1999.90;999.90;;;16.00;87.60;;;;;;5024183;28;20025;-77
2024/04/03 11:17:50;;;;;;;1999.90;999.90;;;15.80;85.30;;;;;;5026727;28;20037;-77
2024/04/03 11:20:15;;;;;;;1999.90;999.90;;;16.00;87.20;;;;;;5023524;28;20725;-77
2024/04/03 11:22:41;;;;;;;1999.90;999.90;;;16.00;86.20;;;;;;5024176;28;20496;-77
2024/04/03 11:25:12;;;;;;;1999.90;999.90;;;16.10;83.00;;;;;;5025479;28;20025;-77
2024/04/03 11:27:39;;;;;;;1999.90;999.90;;;16.20;79.60;;;;;;5026949;28;20838;-77
2024/04/03 11:30:06;;;;;;;1999.90;999.90;;;16.60;79.80;;;;;;5023863;28;20786;-77
2024/04/03 11:32:32;;;;;;;1999.90;999.90;;;16.90;78.10;;;;;;5024344;28;20021;-77
2024/04/03 11:34:58;;;;;;;1999.90;999.90;;;16.70;75.60;;;;;;5021398;28;20034;-76
2024/04/03 11:37:24;;;;;;;1999.90;999.90;;;16.50;76.90;;;;;;5024038;28;20026;-77
2024/04/03 11:39:49;;;;;;;1999.90;999.90;;;16.20;76.70;;;;;;5023678;28;20493;-77
2024/04/03 11:42:15;;;;;;;1999.90;999.90;;;16.50;78.20;;;;;;5024378;28;20037;-77
2024/04/03 11:44:42;;;;;;;1999.90;999.90;;;16.20;78.50;;;;;;5023636;28;20021;-77
2024/04/03 11:47:07;;;;;;;1999.90;999.90;;;15.80;80.90;;;;;;5024044;28;20033;-76
2024/04/03 11:49:33;;;;;;;1999.90;999.90;;;16.00;82.90;;;;;;5016927;28;20040;-77
2024/04/03 11:51:59;;;;;;;1999.90;999.90;;;16.10;82.50;;;;;;5023449;28;20039;-77
2024/04/03 11:54:25;;;;;;;1999.90;999.90;;;16.40;83.00;;;;;;5023130;28;20579;-76
2024/04/03 11:56:51;;;;;;;1999.90;999.90;;;17.00;85.00;;;;;;5024398;28;20062;-77
2024/04/03 11:59:17;;;;;;;1999.90;999.90;;;17.50;83.90;;;;;;5022951;28;20493;-77
2024/04/03 12:01:43;;;;;;;1999.90;999.90;;;17.00;79.60;;;;;;5024355;28;20032;-77